sensor_id;sensor_type;location;lat;lon;timestamp;temperature;humidity
20288;DHT22;10303;51.960;8.372;2023-06-19T00:00:34;27.00;52.20
20288;DHT22;10303;51.960;8.372;2023-06-19T00:03:00;26.90;52.20
20288;DHT22;10303;51.960;8.372;2023-06-19T00:05:26;26.90;52.20
20288;DHT22;10303;51.960;8.372;2023-06-19T00:07:52;26.90;52.10
20288;DHT22;10303;51.960;8.372;2023-06-19T00:10:18;26.90;52.20
20288;DHT22;10303;51.960;8.372;2023-06-19T00:12:44;26.80;52.10
20288;DHT22;10303;51.960;8.372;2023-06-19T00:15:11;26.80;52.10
20288;DHT22;10303;51.960;8.372;2023-06-19T00:17:37;26.80;52.10
20288;DHT22;10303;51.960;8.372;2023-06-19T00:20:04;26.80;52.10
20288;DHT22;10303;51.960;8.372;2023-06-19T00:22:34;26.80;52.20
20288;DHT22;10303;51.960;8.372;2023-06-19T00:25:00;26.80;52.20
20288;DHT22;10303;51.960;8.372;2023-06-19T00:27:26;26.80;52.30
20288;DHT22;10303;51.960;8.372;2023-06-19T00:29:52;26.70;52.30
20288;DHT22;10303;51.960;8.372;2023-06-19T00:32:18;26.70;52.30
20288;DHT22;10303;51.960;8.372;2023-06-19T00:34:45;26.80;52.40
20288;DHT22;10303;51.960;8.372;2023-06-19T00:37:11;26.70;52.40
20288;DHT22;10303;51.960;8.372;2023-06-19T00:39:41;26.70;52.50
20288;DHT22;10303;51.960;8.372;2023-06-19T00:42:07;26.70;52.70
20288;DHT22;10303;51.960;8.372;2023-06-19T00:44:33;26.70;52.60
20288;DHT22;10303;51.960;8.372;2023-06-19T00:47:01;26.70;52.60
20288;DHT22;10303;51.960;8.372;2023-06-19T00:49:30;26.70;52.80
20288;DHT22;10303;51.960;8.372;2023-06-19T00:51:57;26.70;52.70
20288;DHT22;10303;51.960;8.372;2023-06-19T00:54:23;26.60;52.70
20288;DHT22;10303;51.960;8.372;2023-06-19T00:56:49;26.60;52.70
20288;DHT22;10303;51.960;8.372;2023-06-19T00:59:18;26.70;52.80
20288;DHT22;10303;51.960;8.372;2023-06-19T01:01:46;26.60;52.90
20288;DHT22;10303;51.960;8.372;2023-06-19T01:04:12;26.60;53.00
20288;DHT22;10303;51.960;8.372;2023-06-19T01:07:07;26.60;52.90
20288;DHT22;10303;51.960;8.372;2023-06-19T01:09:52;26.60;53.30
20288;DHT22;10303;51.960;8.372;2023-06-19T01:12:36;26.60;53.10
20288;DHT22;10303;51.960;8.372;2023-06-19T01:15:05;26.60;53.00
20288;DHT22;10303;51.960;8.372;2023-06-19T01:17:35;26.50;52.90
20288;DHT22;10303;51.960;8.372;2023-06-19T01:20:02;26.50;53.10
20288;DHT22;10303;51.960;8.372;2023-06-19T01:22:37;26.50;53.10
20288;DHT22;10303;51.960;8.372;2023-06-19T01:25:05;26.50;53.10
20288;DHT22;10303;51.960;8.372;2023-06-19T01:27:31;26.50;53.10
20288;DHT22;10303;51.960;8.372;2023-06-19T01:30:00;26.40;53.10
20288;DHT22;10303;51.960;8.372;2023-06-19T01:35:01;26.50;53.30
20288;DHT22;10303;51.960;8.372;2023-06-19T01:37:28;26.40;53.40
20288;DHT22;10303;51.960;8.372;2023-06-19T01:39:57;26.40;53.40
20288;DHT22;10303;51.960;8.372;2023-06-19T01:42:25;26.40;53.50
20288;DHT22;10303;51.960;8.372;2023-06-19T01:44:52;26.40;53.60
20288;DHT22;10303;51.960;8.372;2023-06-19T01:47:19;26.40;53.60
20288;DHT22;10303;51.960;8.372;2023-06-19T01:49:46;26.40;53.60
20288;DHT22;10303;51.960;8.372;2023-06-19T01:52:13;26.40;53.70
20288;DHT22;10303;51.960;8.372;2023-06-19T01:54:39;26.40;53.70
20288;DHT22;10303;51.960;8.372;2023-06-19T01:57:06;26.40;53.80
20288;DHT22;10303;51.960;8.372;2023-06-19T01:59:34;26.40;53.90
20288;DHT22;10303;51.960;8.372;2023-06-19T02:02:00;26.40;53.90
20288;DHT22;10303;51.960;8.372;2023-06-19T02:04:28;26.30;54.00
20288;DHT22;10303;51.960;8.372;2023-06-19T02:06:55;26.40;54.10
20288;DHT22;10303;51.960;8.372;2023-06-19T02:09:21;26.30;54.10
20288;DHT22;10303;51.960;8.372;2023-06-19T02:11:47;26.30;54.10
20288;DHT22;10303;51.960;8.372;2023-06-19T02:14:13;26.30;54.20
20288;DHT22;10303;51.960;8.372;2023-06-19T02:16:39;26.30;54.20
20288;DHT22;10303;51.960;8.372;2023-06-19T02:19:12;26.30;54.20
20288;DHT22;10303;51.960;8.372;2023-06-19T02:21:38;26.20;54.50
20288;DHT22;10303;51.960;8.372;2023-06-19T02:24:05;26.30;54.40
20288;DHT22;10303;51.960;8.372;2023-06-19T02:26:31;26.20;54.50
20288;DHT22;10303;51.960;8.372;2023-06-19T02:28:57;26.20;54.60
20288;DHT22;10303;51.960;8.372;2023-06-19T02:31:23;26.20;54.70
20288;DHT22;10303;51.960;8.372;2023-06-19T02:33:50;26.10;54.80
20288;DHT22;10303;51.960;8.372;2023-06-19T02:36:18;26.10;55.00
20288;DHT22;10303;51.960;8.372;2023-06-19T02:38:48;26.10;55.00
20288;DHT22;10303;51.960;8.372;2023-06-19T02:41:15;26.00;55.30
20288;DHT22;10303;51.960;8.372;2023-06-19T02:43:43;25.90;54.90
20288;DHT22;10303;51.960;8.372;2023-06-19T02:46:12;26.00;55.30
20288;DHT22;10303;51.960;8.372;2023-06-19T02:48:38;25.90;55.10
20288;DHT22;10303;51.960;8.372;2023-06-19T02:51:04;25.90;55.20
20288;DHT22;10303;51.960;8.372;2023-06-19T02:53:30;25.90;55.20
20288;DHT22;10303;51.960;8.372;2023-06-19T02:55:56;25.90;55.40
20288;DHT22;10303;51.960;8.372;2023-06-19T02:58:22;25.80;55.40
20288;DHT22;10303;51.960;8.372;2023-06-19T03:00:48;25.80;55.40
20288;DHT22;10303;51.960;8.372;2023-06-19T03:03:15;25.80;55.50
20288;DHT22;10303;51.960;8.372;2023-06-19T03:05:41;25.80;55.50
20288;DHT22;10303;51.960;8.372;2023-06-19T03:08:07;25.80;55.50
20288;DHT22;10303;51.960;8.372;2023-06-19T03:10:33;25.80;55.60
20288;DHT22;10303;51.960;8.372;2023-06-19T03:12:59;25.70;55.70
20288;DHT22;10303;51.960;8.372;2023-06-19T03:15:26;25.70;55.80
20288;DHT22;10303;51.960;8.372;2023-06-19T03:17:53;25.70;55.90
20288;DHT22;10303;51.960;8.372;2023-06-19T03:20:20;25.70;56.20
20288;DHT22;10303;51.960;8.372;2023-06-19T03:22:55;25.60;56.10
20288;DHT22;10303;51.960;8.372;2023-06-19T03:25:23;25.60;56.30
20288;DHT22;10303;51.960;8.372;2023-06-19T03:27:49;25.60;56.50
20288;DHT22;10303;51.960;8.372;2023-06-19T03:30:15;25.60;56.60
20288;DHT22;10303;51.960;8.372;2023-06-19T03:32:45;25.50;56.50
20288;DHT22;10303;51.960;8.372;2023-06-19T03:35:22;25.50;56.60
20288;DHT22;10303;51.960;8.372;2023-06-19T03:37:48;25.50;56.60
20288;DHT22;10303;51.960;8.372;2023-06-19T03:40:15;25.50;56.70
20288;DHT22;10303;51.960;8.372;2023-06-19T03:42:44;25.40;56.80
20288;DHT22;10303;51.960;8.372;2023-06-19T03:45:11;25.40;56.90
20288;DHT22;10303;51.960;8.372;2023-06-19T03:47:37;25.40;57.00
20288;DHT22;10303;51.960;8.372;2023-06-19T03:50:03;25.30;57.00
20288;DHT22;10303;51.960;8.372;2023-06-19T03:52:29;25.30;57.10
20288;DHT22;10303;51.960;8.372;2023-06-19T03:54:55;25.30;57.30
20288;DHT22;10303;51.960;8.372;2023-06-19T03:57:21;25.30;57.60
20288;DHT22;10303;51.960;8.372;2023-06-19T03:59:47;25.30;57.80
20288;DHT22;10303;51.960;8.372;2023-06-19T04:02:13;25.30;58.00
20288;DHT22;10303;51.960;8.372;2023-06-19T04:04:39;25.20;58.20
20288;DHT22;10303;51.960;8.372;2023-06-19T04:07:05;25.20;58.20
20288;DHT22;10303;51.960;8.372;2023-06-19T04:09:31;25.20;58.30
20288;DHT22;10303;51.960;8.372;2023-06-19T04:11:57;25.20;58.50
20288;DHT22;10303;51.960;8.372;2023-06-19T04:14:24;25.10;58.80
20288;DHT22;10303;51.960;8.372;2023-06-19T04:16:50;25.10;58.90
20288;DHT22;10303;51.960;8.372;2023-06-19T04:19:16;25.10;59.00
20288;DHT22;10303;51.960;8.372;2023-06-19T04:21:42;25.10;59.00
20288;DHT22;10303;51.960;8.372;2023-06-19T04:24:08;25.10;59.00
20288;DHT22;10303;51.960;8.372;2023-06-19T04:26:35;25.00;58.80
20288;DHT22;10303;51.960;8.372;2023-06-19T04:29:02;25.10;59.10
20288;DHT22;10303;51.960;8.372;2023-06-19T04:31:28;25.00;59.10
20288;DHT22;10303;51.960;8.372;2023-06-19T04:33:55;25.00;59.30
20288;DHT22;10303;51.960;8.372;2023-06-19T04:36:24;25.10;59.20
20288;DHT22;10303;51.960;8.372;2023-06-19T04:38:50;25.10;59.10
20288;DHT22;10303;51.960;8.372;2023-06-19T04:41:17;25.10;59.10
20288;DHT22;10303;51.960;8.372;2023-06-19T04:43:43;25.10;59.20
20288;DHT22;10303;51.960;8.372;2023-06-19T04:46:10;25.20;59.30
20288;DHT22;10303;51.960;8.372;2023-06-19T04:48:36;25.10;59.40
20288;DHT22;10303;51.960;8.372;2023-06-19T04:51:03;25.20;60.00
20288;DHT22;10303;51.960;8.372;2023-06-19T04:53:29;25.20;59.90
20288;DHT22;10303;51.960;8.372;2023-06-19T04:55:55;25.20;59.80
20288;DHT22;10303;51.960;8.372;2023-06-19T04:58:22;25.30;59.80
20288;DHT22;10303;51.960;8.372;2023-06-19T05:00:48;25.20;59.90
20288;DHT22;10303;51.960;8.372;2023-06-19T05:03:19;25.20;60.30
20288;DHT22;10303;51.960;8.372;2023-06-19T05:05:47;25.30;60.70
20288;DHT22;10303;51.960;8.372;2023-06-19T05:08:13;25.30;60.60
20288;DHT22;10303;51.960;8.372;2023-06-19T05:10:39;25.30;60.60
20288;DHT22;10303;51.960;8.372;2023-06-19T05:13:05;25.40;60.90
20288;DHT22;10303;51.960;8.372;2023-06-19T05:15:31;25.40;63.30
20288;DHT22;10303;51.960;8.372;2023-06-19T05:17:57;25.40;61.70
20288;DHT22;10303;51.960;8.372;2023-06-19T05:20:23;25.40;62.60
20288;DHT22;10303;51.960;8.372;2023-06-19T05:22:49;25.40;62.10
20288;DHT22;10303;51.960;8.372;2023-06-19T05:25:15;25.40;62.90
20288;DHT22;10303;51.960;8.372;2023-06-19T05:27:41;25.50;62.50
20288;DHT22;10303;51.960;8.372;2023-06-19T05:30:07;25.50;63.40
20288;DHT22;10303;51.960;8.372;2023-06-19T05:32:34;25.60;65.10
20288;DHT22;10303;51.960;8.372;2023-06-19T05:34:59;25.50;64.70
20288;DHT22;10303;51.960;8.372;2023-06-19T05:37:25;25.60;64.40
20288;DHT22;10303;51.960;8.372;2023-06-19T05:39:52;25.60;65.30
20288;DHT22;10303;51.960;8.372;2023-06-19T05:42:18;25.60;64.50
20288;DHT22;10303;51.960;8.372;2023-06-19T05:44:44;25.70;64.70
20288;DHT22;10303;51.960;8.372;2023-06-19T05:47:10;25.70;65.70
20288;DHT22;10303;51.960;8.372;2023-06-19T05:49:37;25.70;65.40
20288;DHT22;10303;51.960;8.372;2023-06-19T05:52:03;25.70;65.20
20288;DHT22;10303;51.960;8.372;2023-06-19T05:54:29;25.80;65.20
20288;DHT22;10303;51.960;8.372;2023-06-19T05:56:55;25.80;65.50
20288;DHT22;10303;51.960;8.372;2023-06-19T05:59:21;25.90;65.30
20288;DHT22;10303;51.960;8.372;2023-06-19T06:01:47;25.90;65.70
20288;DHT22;10303;51.960;8.372;2023-06-19T06:04:13;25.90;65.80
20288;DHT22;10303;51.960;8.372;2023-06-19T06:06:39;26.00;66.30
20288;DHT22;10303;51.960;8.372;2023-06-19T06:09:05;26.00;66.60
20288;DHT22;10303;51.960;8.372;2023-06-19T06:11:31;26.00;67.70
20288;DHT22;10303;51.960;8.372;2023-06-19T06:13:57;25.90;68.50
20288;DHT22;10303;51.960;8.372;2023-06-19T06:16:23;26.00;68.60
20288;DHT22;10303;51.960;8.372;2023-06-19T06:18:49;25.90;69.10
20288;DHT22;10303;51.960;8.372;2023-06-19T06:21:14;26.00;70.00
20288;DHT22;10303;51.960;8.372;2023-06-19T06:23:41;25.90;69.70
20288;DHT22;10303;51.960;8.372;2023-06-19T06:26:07;25.70;71.90
20288;DHT22;10303;51.960;8.372;2023-06-19T06:28:33;25.80;71.30
20288;DHT22;10303;51.960;8.372;2023-06-19T06:30:59;25.90;71.00
20288;DHT22;10303;51.960;8.372;2023-06-19T06:33:25;25.90;72.00
20288;DHT22;10303;51.960;8.372;2023-06-19T06:35:50;25.90;72.30
20288;DHT22;10303;51.960;8.372;2023-06-19T06:38:17;26.00;71.10
20288;DHT22;10303;51.960;8.372;2023-06-19T06:40:43;26.00;71.90
20288;DHT22;10303;51.960;8.372;2023-06-19T06:43:09;26.10;72.20
20288;DHT22;10303;51.960;8.372;2023-06-19T06:45:35;26.10;71.60
20288;DHT22;10303;51.960;8.372;2023-06-19T06:48:06;26.10;71.60
20288;DHT22;10303;51.960;8.372;2023-06-19T06:50:32;26.10;72.10
20288;DHT22;10303;51.960;8.372;2023-06-19T06:52:58;26.20;72.90
20288;DHT22;10303;51.960;8.372;2023-06-19T06:55:26;26.20;72.20
20288;DHT22;10303;51.960;8.372;2023-06-19T06:57:52;26.30;72.70
20288;DHT22;10303;51.960;8.372;2023-06-19T07:00:18;26.30;72.90
20288;DHT22;10303;51.960;8.372;2023-06-19T07:02:44;26.30;72.80
20288;DHT22;10303;51.960;8.372;2023-06-19T07:05:12;26.30;73.40
20288;DHT22;10303;51.960;8.372;2023-06-19T07:07:38;26.10;73.60
20288;DHT22;10303;51.960;8.372;2023-06-19T07:10:04;26.20;73.20
20288;DHT22;10303;51.960;8.372;2023-06-19T07:12:31;26.30;72.80
20288;DHT22;10303;51.960;8.372;2023-06-19T07:14:57;26.20;74.70
20288;DHT22;10303;51.960;8.372;2023-06-19T07:17:23;26.00;75.90
20288;DHT22;10303;51.960;8.372;2023-06-19T07:19:49;26.00;75.70
20288;DHT22;10303;51.960;8.372;2023-06-19T07:22:15;26.10;75.00
20288;DHT22;10303;51.960;8.372;2023-06-19T07:24:41;26.00;76.00
20288;DHT22;10303;51.960;8.372;2023-06-19T07:27:07;25.90;76.90
20288;DHT22;10303;51.960;8.372;2023-06-19T07:29:33;25.90;76.20
20288;DHT22;10303;51.960;8.372;2023-06-19T07:31:59;25.70;77.00
20288;DHT22;10303;51.960;8.372;2023-06-19T07:34:28;25.70;76.50
20288;DHT22;10303;51.960;8.372;2023-06-19T07:36:53;25.90;75.30
20288;DHT22;10303;51.960;8.372;2023-06-19T07:39:19;25.90;75.30
20288;DHT22;10303;51.960;8.372;2023-06-19T07:41:45;25.80;75.90
20288;DHT22;10303;51.960;8.372;2023-06-19T07:44:11;25.90;77.00
20288;DHT22;10303;51.960;8.372;2023-06-19T07:46:37;26.00;76.40
20288;DHT22;10303;51.960;8.372;2023-06-19T07:49:04;25.80;77.20
20288;DHT22;10303;51.960;8.372;2023-06-19T07:51:30;26.00;77.30
20288;DHT22;10303;51.960;8.372;2023-06-19T07:53:56;26.00;77.10
20288;DHT22;10303;51.960;8.372;2023-06-19T07:56:22;26.10;76.90
20288;DHT22;10303;51.960;8.372;2023-06-19T07:58:47;26.30;75.80
20288;DHT22;10303;51.960;8.372;2023-06-19T08:01:13;26.20;74.50
20288;DHT22;10303;51.960;8.372;2023-06-19T08:03:41;26.30;74.70
20288;DHT22;10303;51.960;8.372;2023-06-19T08:06:07;26.30;74.00
20288;DHT22;10303;51.960;8.372;2023-06-19T08:08:33;26.40;74.00
20288;DHT22;10303;51.960;8.372;2023-06-19T08:10:59;26.50;73.80
20288;DHT22;10303;51.960;8.372;2023-06-19T08:13:25;26.50;73.70
20288;DHT22;10303;51.960;8.372;2023-06-19T08:15:51;26.60;73.90
20288;DHT22;10303;51.960;8.372;2023-06-19T08:18:17;26.70;74.20
20288;DHT22;10303;51.960;8.372;2023-06-19T08:20:43;26.70;73.50
20288;DHT22;10303;51.960;8.372;2023-06-19T08:23:09;26.50;74.10
20288;DHT22;10303;51.960;8.372;2023-06-19T08:25:35;26.50;74.40
20288;DHT22;10303;51.960;8.372;2023-06-19T08:28:00;26.70;74.80
20288;DHT22;10303;51.960;8.372;2023-06-19T08:30:26;26.70;74.10
20288;DHT22;10303;51.960;8.372;2023-06-19T08:32:52;26.80;74.00
20288;DHT22;10303;51.960;8.372;2023-06-19T08:35:18;26.70;73.20
20288;DHT22;10303;51.960;8.372;2023-06-19T08:37:44;26.70;73.30
20288;DHT22;10303;51.960;8.372;2023-06-19T08:40:11;26.80;74.60
20288;DHT22;10303;51.960;8.372;2023-06-19T08:42:38;26.80;74.70
20288;DHT22;10303;51.960;8.372;2023-06-19T08:45:06;26.90;73.90
20288;DHT22;10303;51.960;8.372;2023-06-19T08:47:34;26.90;72.80
20288;DHT22;10303;51.960;8.372;2023-06-19T08:50:00;27.00;73.50
20288;DHT22;10303;51.960;8.372;2023-06-19T08:52:26;26.90;73.20
20288;DHT22;10303;51.960;8.372;2023-06-19T08:54:52;26.80;73.40
20288;DHT22;10303;51.960;8.372;2023-06-19T08:57:18;26.90;72.70
20288;DHT22;10303;51.960;8.372;2023-06-19T08:59:51;26.90;72.70
20288;DHT22;10303;51.960;8.372;2023-06-19T09:02:17;27.00;72.40
20288;DHT22;10303;51.960;8.372;2023-06-19T09:04:43;27.00;71.30
20288;DHT22;10303;51.960;8.372;2023-06-19T09:07:09;27.00;70.60
20288;DHT22;10303;51.960;8.372;2023-06-19T09:09:47;27.00;70.60
20288;DHT22;10303;51.960;8.372;2023-06-19T09:12:13;27.00;70.60
20288;DHT22;10303;51.960;8.372;2023-06-19T09:14:44;26.90;72.20
20288;DHT22;10303;51.960;8.372;2023-06-19T09:17:13;26.80;71.60
20288;DHT22;10303;51.960;8.372;2023-06-19T09:19:50;26.90;72.30
20288;DHT22;10303;51.960;8.372;2023-06-19T09:22:18;26.70;72.20
20288;DHT22;10303;51.960;8.372;2023-06-19T09:24:47;26.80;72.60
20288;DHT22;10303;51.960;8.372;2023-06-19T09:27:18;26.90;72.30
20288;DHT22;10303;51.960;8.372;2023-06-19T09:29:46;26.90;71.70
20288;DHT22;10303;51.960;8.372;2023-06-19T09:32:27;26.90;71.60
20288;DHT22;10303;51.960;8.372;2023-06-19T09:34:57;26.90;72.20
20288;DHT22;10303;51.960;8.372;2023-06-19T09:37:28;26.90;71.70
20288;DHT22;10303;51.960;8.372;2023-06-19T09:40:00;26.70;71.90
20288;DHT22;10303;51.960;8.372;2023-06-19T09:42:34;26.70;72.90
20288;DHT22;10303;51.960;8.372;2023-06-19T09:45:05;26.70;72.80
20288;DHT22;10303;51.960;8.372;2023-06-19T09:47:39;26.70;73.20
20288;DHT22;10303;51.960;8.372;2023-06-19T09:50:12;26.60;74.20
20288;DHT22;10303;51.960;8.372;2023-06-19T09:52:43;26.70;73.50
20288;DHT22;10303;51.960;8.372;2023-06-19T09:55:13;26.70;72.70
20288;DHT22;10303;51.960;8.372;2023-06-19T09:57:41;26.70;72.30
20288;DHT22;10303;51.960;8.372;2023-06-19T10:00:09;26.80;71.90
20288;DHT22;10303;51.960;8.372;2023-06-19T10:02:40;26.80;71.70
20288;DHT22;10303;51.960;8.372;2023-06-19T10:05:07;26.90;72.70
20288;DHT22;10303;51.960;8.372;2023-06-19T10:07:44;26.80;72.60
20288;DHT22;10303;51.960;8.372;2023-06-19T10:10:24;26.80;72.20
20288;DHT22;10303;51.960;8.372;2023-06-19T10:12:51;26.90;72.30
20288;DHT22;10303;51.960;8.372;2023-06-19T10:15:19;26.90;73.40
20288;DHT22;10303;51.960;8.372;2023-06-19T10:17:51;26.80;73.30
20288;DHT22;10303;51.960;8.372;2023-06-19T10:25:47;27.00;72.00
20288;DHT22;10303;51.960;8.372;2023-06-19T10:28:23;27.00;72.80
20288;DHT22;10303;51.960;8.372;2023-06-19T10:31:02;26.70;73.10
20288;DHT22;10303;51.960;8.372;2023-06-19T10:33:32;26.60;74.30
20288;DHT22;10303;51.960;8.372;2023-06-19T10:36:01;26.70;74.10
20288;DHT22;10303;51.960;8.372;2023-06-19T10:38:38;26.70;74.90
20288;DHT22;10303;51.960;8.372;2023-06-19T10:41:04;26.80;74.60
20288;DHT22;10303;51.960;8.372;2023-06-19T10:43:30;26.80;74.20
20288;DHT22;10303;51.960;8.372;2023-06-19T10:45:58;26.90;73.90
20288;DHT22;10303;51.960;8.372;2023-06-19T10:48:25;27.10;74.00
20288;DHT22;10303;51.960;8.372;2023-06-19T10:50:51;27.20;73.70
20288;DHT22;10303;51.960;8.372;2023-06-19T10:53:27;27.20;74.20
20288;DHT22;10303;51.960;8.372;2023-06-19T10:56:00;27.30;73.10
20288;DHT22;10303;51.960;8.372;2023-06-19T10:58:28;27.40;72.90
20288;DHT22;10303;51.960;8.372;2023-06-19T11:00:55;27.50;72.50
20288;DHT22;10303;51.960;8.372;2023-06-19T11:03:22;27.50;71.90
20288;DHT22;10303;51.960;8.372;2023-06-19T11:05:49;27.60;72.30
20288;DHT22;10303;51.960;8.372;2023-06-19T11:08:22;27.60;73.00
20288;DHT22;10303;51.960;8.372;2023-06-19T11:10:49;27.70;72.60
20288;DHT22;10303;51.960;8.372;2023-06-19T11:13:18;27.70;72.50
20288;DHT22;10303;51.960;8.372;2023-06-19T11:15:47;27.80;71.90
20288;DHT22;10303;51.960;8.372;2023-06-19T11:18:16;27.80;71.20
20288;DHT22;10303;51.960;8.372;2023-06-19T11:20:48;27.80;70.60
20288;DHT22;10303;51.960;8.372;2023-06-19T11:23:17;27.80;71.60
20288;DHT22;10303;51.960;8.372;2023-06-19T11:25:50;27.70;71.80
20288;DHT22;10303;51.960;8.372;2023-06-19T11:28:17;27.50;72.60
20288;DHT22;10303;51.960;8.372;2023-06-19T11:31:02;27.60;72.10
20288;DHT22;10303;51.960;8.372;2023-06-19T11:33:29;27.70;72.00
20288;DHT22;10303;51.960;8.372;2023-06-19T11:36:00;27.70;72.80
20288;DHT22;10303;51.960;8.372;2023-06-19T11:38:27;27.70;73.80
20288;DHT22;10303;51.960;8.372;2023-06-19T11:40:57;27.80;73.30
20288;DHT22;10303;51.960;8.372;2023-06-19T11:43:27;27.80;73.80
20288;DHT22;10303;51.960;8.372;2023-06-19T11:46:05;27.80;73.60
20288;DHT22;10303;51.960;8.372;2023-06-19T11:48:36;28.00;74.20
20288;DHT22;10303;51.960;8.372;2023-06-19T11:51:03;28.00;73.10
20288;DHT22;10303;51.960;8.372;2023-06-19T11:53:29;28.10;72.40
20288;DHT22;10303;51.960;8.372;2023-06-19T11:55:55;28.20;73.30
20288;DHT22;10303;51.960;8.372;2023-06-19T11:58:22;28.40;72.10
20288;DHT22;10303;51.960;8.372;2023-06-19T12:00:48;28.50;71.10
20288;DHT22;10303;51.960;8.372;2023-06-19T12:03:14;28.60;71.90
20288;DHT22;10303;51.960;8.372;2023-06-19T12:05:40;28.50;71.20
20288;DHT22;10303;51.960;8.372;2023-06-19T12:08:06;28.60;70.40
20288;DHT22;10303;51.960;8.372;2023-06-19T12:10:36;28.70;69.70
20288;DHT22;10303;51.960;8.372;2023-06-19T12:13:01;28.80;69.80
20288;DHT22;10303;51.960;8.372;2023-06-19T12:15:28;29.00;68.90
20288;DHT22;10303;51.960;8.372;2023-06-19T12:17:54;29.10;68.50
20288;DHT22;10303;51.960;8.372;2023-06-19T12:20:20;29.20;69.10
20288;DHT22;10303;51.960;8.372;2023-06-19T12:22:46;29.30;68.10
20288;DHT22;10303;51.960;8.372;2023-06-19T12:25:13;29.40;68.50
20288;DHT22;10303;51.960;8.372;2023-06-19T12:27:39;29.50;67.40
20288;DHT22;10303;51.960;8.372;2023-06-19T12:30:07;29.50;66.70
20288;DHT22;10303;51.960;8.372;2023-06-19T12:32:34;29.50;66.00
20288;DHT22;10303;51.960;8.372;2023-06-19T12:35:01;29.60;65.60
20288;DHT22;10303;51.960;8.372;2023-06-19T12:37:29;29.50;65.70
20288;DHT22;10303;51.960;8.372;2023-06-19T12:39:57;29.50;66.00
20288;DHT22;10303;51.960;8.372;2023-06-19T12:42:24;29.40;67.80
20288;DHT22;10303;51.960;8.372;2023-06-19T12:44:50;29.50;67.20
20288;DHT22;10303;51.960;8.372;2023-06-19T12:47:15;29.70;67.10
20288;DHT22;10303;51.960;8.372;2023-06-19T12:49:43;29.90;67.00
20288;DHT22;10303;51.960;8.372;2023-06-19T12:52:09;30.10;66.30
20288;DHT22;10303;51.960;8.372;2023-06-19T12:54:36;30.10;66.20
20288;DHT22;10303;51.960;8.372;2023-06-19T12:57:02;30.40;62.90
20288;DHT22;10303;51.960;8.372;2023-06-19T12:59:28;30.50;63.20
20288;DHT22;10303;51.960;8.372;2023-06-19T13:01:55;30.60;62.60
20288;DHT22;10303;51.960;8.372;2023-06-19T13:04:21;30.70;62.00
20288;DHT22;10303;51.960;8.372;2023-06-19T13:06:46;30.80;62.80
20288;DHT22;10303;51.960;8.372;2023-06-19T13:09:12;31.00;63.10
20288;DHT22;10303;51.960;8.372;2023-06-19T13:11:38;31.10;62.20
20288;DHT22;10303;51.960;8.372;2023-06-19T13:14:04;31.20;61.40
20288;DHT22;10303;51.960;8.372;2023-06-19T13:16:31;31.30;61.80
20288;DHT22;10303;51.960;8.372;2023-06-19T13:18:57;31.40;61.00
20288;DHT22;10303;51.960;8.372;2023-06-19T13:21:24;31.40;60.80
20288;DHT22;10303;51.960;8.372;2023-06-19T13:23:51;31.50;61.20
20288;DHT22;10303;51.960;8.372;2023-06-19T13:26:19;31.60;59.70
20288;DHT22;10303;51.960;8.372;2023-06-19T13:28:45;31.60;59.80
20288;DHT22;10303;51.960;8.372;2023-06-19T13:31:12;31.70;60.20
20288;DHT22;10303;51.960;8.372;2023-06-19T13:33:41;31.80;60.40
20288;DHT22;10303;51.960;8.372;2023-06-19T13:36:10;31.80;59.40
20288;DHT22;10303;51.960;8.372;2023-06-19T13:38:36;31.80;59.50
20288;DHT22;10303;51.960;8.372;2023-06-19T13:41:03;31.80;58.70
20288;DHT22;10303;51.960;8.372;2023-06-19T13:43:31;31.80;58.60
20288;DHT22;10303;51.960;8.372;2023-06-19T13:45:57;31.80;59.10
20288;DHT22;10303;51.960;8.372;2023-06-19T13:48:23;31.80;58.50
20288;DHT22;10303;51.960;8.372;2023-06-19T13:50:49;31.70;57.90
20288;DHT22;10303;51.960;8.372;2023-06-19T13:53:15;31.70;57.80
20288;DHT22;10303;51.960;8.372;2023-06-19T13:55:41;31.80;57.70
20288;DHT22;10303;51.960;8.372;2023-06-19T13:58:07;31.80;58.10
20288;DHT22;10303;51.960;8.372;2023-06-19T14:00:33;31.70;57.20
20288;DHT22;10303;51.960;8.372;2023-06-19T14:03:02;31.70;57.10
20288;DHT22;10303;51.960;8.372;2023-06-19T14:05:29;31.70;57.50
20288;DHT22;10303;51.960;8.372;2023-06-19T14:07:55;31.70;58.00
20288;DHT22;10303;51.960;8.372;2023-06-19T14:10:20;31.70;57.90
20288;DHT22;10303;51.960;8.372;2023-06-19T14:12:46;31.50;58.10
20288;DHT22;10303;51.960;8.372;2023-06-19T14:15:12;31.60;58.00
20288;DHT22;10303;51.960;8.372;2023-06-19T14:17:38;31.60;58.70
20288;DHT22;10303;51.960;8.372;2023-06-19T14:20:07;31.60;58.40
20288;DHT22;10303;51.960;8.372;2023-06-19T14:22:36;31.50;57.60
20288;DHT22;10303;51.960;8.372;2023-06-19T14:25:02;31.50;58.10
20288;DHT22;10303;51.960;8.372;2023-06-19T14:27:28;31.40;58.00
20288;DHT22;10303;51.960;8.372;2023-06-19T14:29:55;31.40;58.00
20288;DHT22;10303;51.960;8.372;2023-06-19T14:32:22;31.50;58.10
20288;DHT22;10303;51.960;8.372;2023-06-19T14:34:51;31.50;58.50
20288;DHT22;10303;51.960;8.372;2023-06-19T14:37:17;31.50;58.70
20288;DHT22;10303;51.960;8.372;2023-06-19T14:39:43;31.50;58.60
20288;DHT22;10303;51.960;8.372;2023-06-19T14:42:09;31.60;58.90
20288;DHT22;10303;51.960;8.372;2023-06-19T14:44:36;31.60;58.80
20288;DHT22;10303;51.960;8.372;2023-06-19T14:47:03;31.50;58.50
20288;DHT22;10303;51.960;8.372;2023-06-19T14:49:29;31.50;58.50
20288;DHT22;10303;51.960;8.372;2023-06-19T14:51:55;31.50;59.00
20288;DHT22;10303;51.960;8.372;2023-06-19T14:54:23;31.50;57.90
20288;DHT22;10303;51.960;8.372;2023-06-19T14:56:49;31.50;58.70
20288;DHT22;10303;51.960;8.372;2023-06-19T14:59:17;31.40;58.50
20288;DHT22;10303;51.960;8.372;2023-06-19T15:01:44;31.40;58.60
20288;DHT22;10303;51.960;8.372;2023-06-19T15:04:10;31.40;58.30
20288;DHT22;10303;51.960;8.372;2023-06-19T15:06:36;31.40;58.20
20288;DHT22;10303;51.960;8.372;2023-06-19T15:09:02;31.20;58.30
20288;DHT22;10303;51.960;8.372;2023-06-19T15:11:28;31.20;57.50
20288;DHT22;10303;51.960;8.372;2023-06-19T15:13:54;31.00;58.40
20288;DHT22;10303;51.960;8.372;2023-06-19T15:16:20;30.80;58.10
20288;DHT22;10303;51.960;8.372;2023-06-19T15:18:47;30.80;58.60
20288;DHT22;10303;51.960;8.372;2023-06-19T15:21:14;30.90;58.70
20288;DHT22;10303;51.960;8.372;2023-06-19T15:23:40;30.90;58.90
20288;DHT22;10303;51.960;8.372;2023-06-19T15:26:06;30.90;58.70
20288;DHT22;10303;51.960;8.372;2023-06-19T15:28:35;30.90;59.00
20288;DHT22;10303;51.960;8.372;2023-06-19T15:31:02;30.80;57.90
20288;DHT22;10303;51.960;8.372;2023-06-19T15:33:29;30.80;58.20
20288;DHT22;10303;51.960;8.372;2023-06-19T15:35:55;30.90;58.50
20288;DHT22;10303;51.960;8.372;2023-06-19T15:38:21;31.00;58.70